createdAt,value
2023-02-08T00:00:50.835Z,83.62
2023-02-08T00:01:47.598Z,82.82
2023-02-08T00:02:44.428Z,84.21
2023-02-08T00:03:41.412Z,83.65
2023-02-08T00:04:38.191Z,83.95
2023-02-08T00:05:34.989Z,84.31
2023-02-08T00:06:31.994Z,84.09
2023-02-08T00:07:28.989Z,83.68
2023-02-08T00:08:25.820Z,84.89
2023-02-08T00:09:22.792Z,83.72
2023-02-08T00:10:19.675Z,83.47
2023-02-08T00:11:16.462Z,84.81
2023-02-08T00:12:13.304Z,84.63
2023-02-08T00:13:10.119Z,83.93
2023-02-08T00:14:07.108Z,83.40
2023-02-08T00:15:05.551Z,83.63
2023-02-08T00:16:02.529Z,83.00
2023-02-08T00:16:59.286Z,82.15
2023-02-08T00:17:56.128Z,82.33
2023-02-08T00:18:52.998Z,82.78
2023-02-08T00:19:49.821Z,83.51
2023-02-08T00:20:47.186Z,82.90
2023-02-08T00:21:43.922Z,83.63
2023-02-08T00:22:41.054Z,83.02
2023-02-08T00:23:37.993Z,83.28
2023-02-08T00:24:34.930Z,83.20
2023-02-08T00:25:31.866Z,83.83
2023-02-08T00:26:28.653Z,82.42
2023-02-08T00:27:25.408Z,81.48
2023-02-08T00:28:22.190Z,82.20
2023-02-08T00:29:21.320Z,81.86
2023-02-08T00:30:18.127Z,82.80
2023-02-08T00:31:15.321Z,83.82
2023-02-08T00:32:12.168Z,83.83
2023-02-08T00:33:09.505Z,84.24
2023-02-08T00:34:06.359Z,84.54
2023-02-08T00:35:03.102Z,84.61
2023-02-08T00:36:01.582Z,84.13
2023-02-08T00:36:58.499Z,85.46
2023-02-08T00:37:55.285Z,85.51
2023-02-08T00:38:52.173Z,86.07
2023-02-08T00:39:49.019Z,84.96
2023-02-08T00:40:45.753Z,85.11
2023-02-08T00:41:42.480Z,85.48
2023-02-08T00:42:39.275Z,84.72
2023-02-08T00:43:36.162Z,84.54
2023-02-08T00:44:33.045Z,83.82
2023-02-08T00:45:30.723Z,83.89
2023-02-08T00:46:27.656Z,83.81
2023-02-08T00:47:25.337Z,83.65
2023-02-08T00:48:22.193Z,82.67
2023-02-08T00:49:18.981Z,83.23
2023-02-08T00:50:15.797Z,83.45
2023-02-08T00:51:14.286Z,83.01
2023-02-08T00:52:11.082Z,83.41
2023-02-08T00:53:07.904Z,82.05
2023-02-08T00:54:04.788Z,82.24
2023-02-08T00:55:01.539Z,82.04
2023-02-08T00:55:58.492Z,82.62
2023-02-08T00:56:55.237Z,83.21
2023-02-08T00:57:52.041Z,83.76
2023-02-08T00:58:48.815Z,83.89
2023-02-08T00:59:45.666Z,84.08
2023-02-08T01:00:44.944Z,84.35
2023-02-08T01:01:42.782Z,84.30
2023-02-08T01:02:39.671Z,84.84
2023-02-08T01:03:39.399Z,85.47
2023-02-08T01:04:36.496Z,85.46
2023-02-08T01:05:33.414Z,84.84
2023-02-08T01:06:30.657Z,85.86
2023-02-08T01:07:27.454Z,85.27
2023-02-08T01:08:24.306Z,86.50
2023-02-08T01:09:21.064Z,85.20
2023-02-08T01:10:17.900Z,84.54
2023-02-08T01:11:22.468Z,84.50
2023-02-08T01:12:19.333Z,84.91
2023-02-08T01:13:16.075Z,85.88
2023-02-08T01:14:12.902Z,85.26
2023-02-08T01:15:09.725Z,85.05
2023-02-08T01:16:11.165Z,83.52
2023-02-08T01:17:08.031Z,84.32
2023-02-08T01:18:06.260Z,83.61
2023-02-08T01:19:05.153Z,83.56
2023-02-08T01:20:02.024Z,83.81
2023-02-08T01:21:08.225Z,83.75
2023-02-08T01:22:05.032Z,83.85
2023-02-08T01:23:01.971Z,83.02
2023-02-08T01:23:59.830Z,83.33
2023-02-08T01:24:56.673Z,82.80
2023-02-08T01:25:53.501Z,83.62
2023-02-08T01:26:52.238Z,84.17
2023-02-08T01:27:49.014Z,84.23
2023-02-08T01:28:47.569Z,84.22
2023-02-08T01:29:44.332Z,84.00
2023-02-08T01:30:41.349Z,85.52
2023-02-08T01:31:40.729Z,84.57
2023-02-08T01:32:37.570Z,84.31
2023-02-08T01:33:34.539Z,84.53
2023-02-08T01:34:31.352Z,83.96
2023-02-08T01:35:28.311Z,84.21
2023-02-08T01:36:27.316Z,83.36
2023-02-08T01:37:24.494Z,82.77
2023-02-08T01:38:21.948Z,83.53
2023-02-08T01:39:18.799Z,84.17
2023-02-08T01:40:15.621Z,84.99
2023-02-08T01:41:19.698Z,85.04
2023-02-08T01:42:18.980Z,85.79
2023-02-08T01:43:54.587Z,85.82
2023-02-08T01:45:16.731Z,85.53
2023-02-08T01:46:13.478Z,85.99
2023-02-08T01:47:11.631Z,85.71
2023-02-08T01:48:13.798Z,86.90
2023-02-08T01:49:19.799Z,86.19
2023-02-08T01:50:21.720Z,85.75
2023-02-08T01:51:24.808Z,85.00
2023-02-08T01:52:27.164Z,83.94
2023-02-08T01:53:27.479Z,84.86
2023-02-08T01:54:32.469Z,84.76
2023-02-08T01:55:38.558Z,85.87
2023-02-08T01:56:41.237Z,85.76
2023-02-08T01:57:38.480Z,86.93
2023-02-08T01:58:41.333Z,85.86
2023-02-08T01:59:47.859Z,86.23
2023-02-08T02:00:46.379Z,85.19
2023-02-08T02:01:46.563Z,86.26
2023-02-08T02:02:47.992Z,85.81
2023-02-08T02:03:45.337Z,86.83
2023-02-08T02:04:42.714Z,87.74
2023-02-08T02:05:43.587Z,86.87
2023-02-08T02:06:46.855Z,87.01
2023-02-08T02:07:44.487Z,87.63
2023-02-08T02:09:05.836Z,87.60
2023-02-08T02:10:23.628Z,88.87
2023-02-08T02:11:20.778Z,88.38
2023-02-08T02:12:18.728Z,88.86
2023-02-08T02:13:22.482Z,90.20
2023-02-08T02:14:19.834Z,89.97
2023-02-08T02:15:16.669Z,89.61
2023-02-08T02:16:13.744Z,90.65
2023-02-08T02:17:15.362Z,90.64
2023-02-08T02:18:30.593Z,91.09
2023-02-08T02:19:45.738Z,91.98
2023-02-08T02:21:10.059Z,91.75
2023-02-08T02:22:19.561Z,93.12
2023-02-08T02:23:47.099Z,93.47
2023-02-08T02:24:55.742Z,92.69
2023-02-08T02:26:10.880Z,93.75
2023-02-08T02:27:25.300Z,93.41
2023-02-08T02:29:09.497Z,94.27
2023-02-08T02:30:09.166Z,95.56
2023-02-08T02:31:15.301Z,96.60
2023-02-08T02:32:24.030Z,96.19
2023-02-08T02:33:42.428Z,95.64
2023-02-08T02:34:51.141Z,96.42
2023-02-08T02:36:17.116Z,95.53
2023-02-08T02:37:22.665Z,97.49
2023-02-08T02:38:52.556Z,97.79
2023-02-08T02:40:07.322Z,98.23
2023-02-08T02:41:45.524Z,98.09
2023-02-08T02:43:15.919Z,98.94
2023-02-08T02:44:36.776Z,100.00
2023-02-08T02:45:53.861Z,99.89
2023-02-08T02:47:02.803Z,100.00
2023-02-08T02:48:48.887Z,100.00
2023-02-08T02:49:57.125Z,100.00
2023-02-08T02:51:12.039Z,100.00
2023-02-08T02:52:15.135Z,100.00
2023-02-08T02:53:18.399Z,100.00
2023-02-08T02:54:29.252Z,100.00
2023-02-08T02:55:31.109Z,100.00
2023-02-08T02:56:50.970Z,100.00
2023-02-08T02:57:53.556Z,100.00
2023-02-08T02:58:53.249Z,100.00
2023-02-08T02:59:50.719Z,100.00
2023-02-08T03:00:53.830Z,100.00
2023-02-08T03:01:50.711Z,100.00
2023-02-08T03:02:47.503Z,100.00
2023-02-08T03:03:44.336Z,100.00
2023-02-08T03:04:41.033Z,100.00
2023-02-08T03:05:38.109Z,100.00
2023-02-08T03:06:54.132Z,100.00
2023-02-08T03:08:23.261Z,100.00
2023-02-08T03:09:35.326Z,100.00
2023-02-08T03:10:34.719Z,100.00
2023-02-08T03:11:36.920Z,100.00
2023-02-08T03:12:45.854Z,100.00
2023-02-08T03:14:16.202Z,100.00
2023-02-08T03:15:23.921Z,100.00
2023-02-08T03:16:26.818Z,100.00
2023-02-08T03:17:49.802Z,100.00
2023-02-08T03:19:20.389Z,100.00
2023-02-08T03:20:53.428Z,100.00
2023-02-08T03:21:58.858Z,100.00
2023-02-08T03:23:18.494Z,100.00
2023-02-08T03:24:33.527Z,100.00
2023-02-08T03:25:38.557Z,100.00
2023-02-08T03:26:53.839Z,100.00
2023-02-08T03:28:09.989Z,100.00
2023-02-08T03:29:54.629Z,100.00
2023-02-08T03:30:59.892Z,100.00
2023-02-08T03:32:12.661Z,100.00
2023-02-08T03:33:23.484Z,100.00
2023-02-08T03:34:45.341Z,100.00
2023-02-08T03:35:57.461Z,100.00
2023-02-08T03:37:03.286Z,100.00
2023-02-08T03:38:06.187Z,100.00
2023-02-08T03:39:11.211Z,100.00
2023-02-08T03:40:23.080Z,100.00
2023-02-08T03:41:28.123Z,100.00
2023-02-08T03:42:30.935Z,100.00
2023-02-08T03:43:34.090Z,100.00
2023-02-08T03:44:39.665Z,100.00
2023-02-08T03:45:46.705Z,100.00
2023-02-08T03:47:00.670Z,100.00
2023-02-08T03:48:03.888Z,100.00
2023-02-08T03:49:15.004Z,100.00
2023-02-08T03:50:19.993Z,100.00
2023-02-08T03:51:21.732Z,100.00
2023-02-08T03:52:19.330Z,100.00
2023-02-08T03:53:22.096Z,100.00
2023-02-08T03:54:28.325Z,100.00
2023-02-08T03:55:29.997Z,100.00
2023-02-08T03:56:33.832Z,100.00
2023-02-08T03:57:45.982Z,100.00
2023-02-08T03:58:50.175Z,100.00
2023-02-08T03:59:56.092Z,100.00
2023-02-08T04:01:06.381Z,100.00
2023-02-08T04:02:09.963Z,100.00
2023-02-08T04:03:20.303Z,100.00
2023-02-08T04:04:19.803Z,100.00
2023-02-08T04:05:17.087Z,100.00
2023-02-08T04:06:13.963Z,100.00
2023-02-08T04:07:10.956Z,100.00
2023-02-08T04:08:08.154Z,100.00
2023-02-08T04:09:04.924Z,100.00
2023-02-08T04:10:02.996Z,100.00
2023-02-08T04:10:59.926Z,100.00
2023-02-08T04:11:56.715Z,100.00
2023-02-08T04:12:53.464Z,100.00
2023-02-08T04:13:50.165Z,100.00
2023-02-08T04:14:46.998Z,100.00
2023-02-08T04:15:44.471Z,100.00
2023-02-08T04:16:41.373Z,100.00
2023-02-08T04:17:38.246Z,100.00
2023-02-08T04:18:35.047Z,100.00
2023-02-08T04:19:31.929Z,100.00
2023-02-08T04:20:28.805Z,100.00
2023-02-08T04:21:25.685Z,100.00
2023-02-08T04:22:22.480Z,100.00
2023-02-08T04:23:19.233Z,100.00
2023-02-08T04:24:16.150Z,100.00
2023-02-08T04:25:13.116Z,100.00
2023-02-08T04:26:09.918Z,100.00
2023-02-08T04:27:07.006Z,100.00
2023-02-08T04:28:04.037Z,100.00
2023-02-08T04:29:01.471Z,100.00
2023-02-08T04:29:58.388Z,100.00
2023-02-08T04:30:57.245Z,100.00
2023-02-08T04:31:54.158Z,100.00
2023-02-08T04:32:51.034Z,100.00
2023-02-08T04:33:47.910Z,100.00
2023-02-08T04:34:44.658Z,100.00
2023-02-08T04:35:42.834Z,100.00
2023-02-08T04:36:39.653Z,100.00
2023-02-08T04:37:36.430Z,100.00
2023-02-08T04:38:33.233Z,100.00
2023-02-08T04:39:30.085Z,100.00
2023-02-08T04:40:26.841Z,100.00
2023-02-08T04:41:23.742Z,100.00
2023-02-08T04:42:20.514Z,100.00
2023-02-08T04:43:17.331Z,100.00
2023-02-08T04:44:14.988Z,100.00
2023-02-08T04:45:11.799Z,100.00
2023-02-08T04:46:08.583Z,98.26
2023-02-08T04:47:05.355Z,97.80
2023-02-08T04:48:02.492Z,97.66
2023-02-08T04:48:59.312Z,97.34
2023-02-08T04:49:56.089Z,96.42
2023-02-08T04:50:58.985Z,95.04
2023-02-08T04:51:55.793Z,93.57
2023-02-08T04:52:53.060Z,93.69
2023-02-08T04:53:49.778Z,93.49
2023-02-08T04:54:50.642Z,94.56
2023-02-08T04:55:47.461Z,94.10
2023-02-08T04:56:44.377Z,93.37
2023-02-08T04:57:41.226Z,91.89
2023-02-08T04:58:38.137Z,92.86
2023-02-08T04:59:34.891Z,91.96
2023-02-08T05:00:31.926Z,91.12
2023-02-08T05:01:28.812Z,90.90
2023-02-08T05:02:25.598Z,92.61
2023-02-08T05:03:22.391Z,93.41
2023-02-08T05:04:19.236Z,95.19
2023-02-08T05:05:16.064Z,97.21
2023-02-08T05:06:13.044Z,97.80
2023-02-08T05:07:09.919Z,99.56
2023-02-08T05:08:07.527Z,100.00
2023-02-08T05:09:08.936Z,100.00
2023-02-08T05:10:06.069Z,100.00
2023-02-08T05:11:02.976Z,100.00
2023-02-08T05:11:59.800Z,100.00
2023-02-08T05:12:56.743Z,99.40
2023-02-08T05:13:53.673Z,96.65
2023-02-08T05:14:50.566Z,95.10
2023-02-08T05:15:47.475Z,94.02
2023-02-08T05:16:44.343Z,93.25
2023-02-08T05:17:41.246Z,91.54
2023-02-08T05:18:38.162Z,90.88
2023-02-08T05:19:34.967Z,90.08
2023-02-08T05:20:33.737Z,90.18
2023-02-08T05:21:30.583Z,90.66
2023-02-08T05:22:27.333Z,93.40
2023-02-08T05:23:24.417Z,95.23
2023-02-08T05:24:21.292Z,96.97
2023-02-08T05:25:18.295Z,96.63
2023-02-08T05:26:15.297Z,95.56
2023-02-08T05:27:12.100Z,97.94
2023-02-08T05:28:08.893Z,98.99
2023-02-08T05:29:05.720Z,99.58
2023-02-08T05:30:02.635Z,100.00
2023-02-08T05:30:59.438Z,100.00
2023-02-08T05:31:56.276Z,100.00
2023-02-08T05:32:53.104Z,100.00
2023-02-08T05:33:51.044Z,100.00
2023-02-08T05:34:47.973Z,100.00
2023-02-08T05:35:46.020Z,100.00
2023-02-08T05:36:42.895Z,100.00
2023-02-08T05:37:39.774Z,100.00
2023-02-08T05:38:36.586Z,100.00
2023-02-08T05:39:33.653Z,100.00
2023-02-08T05:40:30.551Z,100.00
2023-02-08T05:41:27.432Z,100.00
2023-02-08T05:42:24.202Z,100.00
2023-02-08T05:43:20.909Z,100.00
2023-02-08T05:44:17.785Z,100.00
2023-02-08T05:45:14.759Z,100.00
2023-02-08T05:46:11.746Z,100.00
2023-02-08T05:47:08.543Z,100.00
2023-02-08T05:48:05.435Z,100.00
2023-02-08T05:49:02.203Z,100.00
2023-02-08T05:49:59.046Z,100.00
2023-02-08T05:50:55.971Z,100.00
2023-02-08T05:51:53.138Z,100.00
2023-02-08T05:52:49.845Z,100.00
2023-02-08T05:53:46.845Z,100.00
2023-02-08T05:54:43.635Z,100.00
2023-02-08T05:55:40.447Z,100.00
2023-02-08T05:56:37.265Z,100.00
2023-02-08T05:57:35.741Z,100.00
2023-02-08T05:58:34.490Z,100.00
2023-02-08T05:59:31.299Z,100.00
2023-02-08T06:00:28.213Z,100.00
2023-02-08T06:01:25.008Z,100.00
2023-02-08T06:02:22.000Z,100.00
2023-02-08T06:03:18.919Z,100.00
2023-02-08T06:04:15.775Z,100.00
2023-02-08T06:05:12.622Z,100.00
2023-02-08T06:06:11.333Z,100.00
2023-02-08T06:07:08.186Z,100.00
2023-02-08T06:08:05.809Z,100.00
2023-02-08T06:09:03.028Z,100.00
2023-02-08T06:09:59.973Z,100.00
2023-02-08T06:10:56.774Z,100.00
2023-02-08T06:11:53.587Z,100.00
2023-02-08T06:12:50.324Z,100.00
2023-02-08T06:13:48.233Z,100.00
2023-02-08T06:14:44.964Z,100.00
2023-02-08T06:15:41.762Z,100.00
2023-02-08T06:16:38.631Z,100.00
2023-02-08T06:17:35.385Z,100.00
2023-02-08T06:18:32.228Z,100.00
2023-02-08T06:19:29.042Z,100.00
2023-02-08T06:20:26.434Z,100.00
2023-02-08T06:21:24.592Z,100.00
2023-02-08T06:22:21.489Z,100.00
2023-02-08T06:23:18.307Z,100.00
2023-02-08T06:24:16.670Z,100.00
2023-02-08T06:25:13.459Z,100.00
2023-02-08T06:26:11.587Z,100.00
2023-02-08T06:27:08.692Z,100.00
2023-02-08T06:28:06.897Z,100.00
2023-02-08T06:29:03.948Z,100.00
2023-02-08T06:30:00.798Z,100.00
2023-02-08T06:30:57.994Z,100.00
2023-02-08T06:31:54.998Z,100.00
2023-02-08T06:32:52.413Z,100.00
2023-02-08T06:33:49.155Z,100.00
2023-02-08T06:34:45.894Z,100.00
2023-02-08T06:35:52.245Z,100.00
2023-02-08T06:36:49.056Z,100.00
2023-02-08T06:37:46.172Z,100.00
2023-02-08T06:38:43.176Z,100.00
2023-02-08T06:39:39.935Z,100.00
2023-02-08T06:40:36.659Z,100.00
2023-02-08T06:41:33.729Z,100.00
2023-02-08T06:42:30.588Z,100.00
2023-02-08T06:43:27.445Z,100.00
2023-02-08T06:44:24.388Z,100.00
2023-02-08T06:45:21.418Z,100.00
2023-02-08T06:46:18.222Z,100.00
2023-02-08T06:47:14.966Z,100.00
2023-02-08T06:48:11.957Z,100.00
2023-02-08T06:49:08.812Z,100.00
2023-02-08T06:50:06.583Z,99.65
2023-02-08T06:51:03.534Z,99.46
2023-02-08T06:52:00.301Z,100.00
2023-02-08T06:52:57.151Z,99.03
2023-02-08T06:53:54.024Z,97.51
2023-02-08T06:54:50.856Z,94.88
2023-02-08T06:55:51.649Z,92.92
2023-02-08T06:56:48.704Z,93.11
2023-02-08T06:57:45.706Z,91.66
2023-02-08T06:58:42.507Z,90.49
2023-02-08T06:59:40.335Z,90.10
2023-02-08T07:00:39.349Z,88.77
2023-02-08T07:01:36.439Z,89.00
2023-02-08T07:02:33.793Z,88.30
2023-02-08T07:03:30.533Z,88.01
2023-02-08T07:04:27.312Z,86.88
2023-02-08T07:05:24.274Z,86.79
2023-02-08T07:06:21.488Z,86.25
2023-02-08T07:07:18.726Z,86.04
2023-02-08T07:08:15.761Z,87.18
2023-02-08T07:09:12.532Z,87.70
2023-02-08T07:10:09.606Z,87.77
2023-02-08T07:11:08.843Z,87.18
2023-02-08T07:12:06.099Z,87.84
2023-02-08T07:13:03.178Z,87.11
2023-02-08T07:13:59.990Z,86.79
2023-02-08T07:14:56.774Z,85.00
2023-02-08T07:15:53.544Z,84.25
2023-02-08T07:16:50.437Z,83.19
2023-02-08T07:17:47.221Z,83.52
2023-02-08T07:18:44.903Z,82.98
2023-02-08T07:19:41.783Z,82.92
2023-02-08T07:20:38.826Z,83.30
2023-02-08T07:21:36.025Z,83.63
2023-02-08T07:22:32.897Z,83.87
2023-02-08T07:23:29.738Z,83.51
2023-02-08T07:24:26.585Z,83.06
2023-02-08T07:25:23.401Z,81.98
2023-02-08T07:26:20.143Z,79.79
2023-02-08T07:27:16.981Z,79.04
2023-02-08T07:28:16.059Z,78.78
2023-02-08T07:29:13.086Z,78.37
2023-02-08T07:30:10.624Z,77.49
2023-02-08T07:31:10.148Z,75.99
2023-02-08T07:32:08.711Z,75.85
2023-02-08T07:33:05.715Z,75.35
2023-02-08T07:34:02.657Z,76.69
2023-02-08T07:34:59.495Z,76.54
2023-02-08T07:35:56.320Z,75.23
2023-02-08T07:36:53.351Z,74.61
2023-02-08T07:37:50.154Z,74.27
2023-02-08T07:38:46.903Z,73.36
2023-02-08T07:39:43.818Z,73.75
2023-02-08T07:40:41.051Z,73.87
2023-02-08T07:41:38.442Z,72.96
2023-02-08T07:42:35.244Z,72.91
2023-02-08T07:43:34.975Z,72.48
2023-02-08T07:44:31.804Z,72.95
2023-02-08T07:45:28.625Z,73.08
2023-02-08T07:46:28.483Z,72.02
2023-02-08T07:47:25.261Z,72.94
2023-02-08T07:48:22.053Z,72.69
2023-02-08T07:49:19.118Z,73.22
2023-02-08T07:50:16.926Z,74.05
2023-02-08T07:51:13.853Z,72.29
2023-02-08T07:52:10.703Z,71.02
2023-02-08T07:53:07.547Z,71.94
2023-02-08T07:54:04.566Z,72.74
2023-02-08T07:55:01.453Z,71.98
2023-02-08T07:56:01.455Z,72.12
2023-02-08T07:56:58.345Z,71.77
2023-02-08T07:57:57.039Z,71.76
2023-02-08T07:58:53.819Z,71.70
2023-02-08T07:59:52.031Z,72.01
2023-02-08T08:00:51.046Z,72.23
2023-02-08T08:01:47.966Z,72.43
2023-02-08T08:02:44.998Z,71.38
2023-02-08T08:03:41.895Z,69.92
2023-02-08T08:04:38.728Z,68.97
2023-02-08T08:05:35.595Z,67.78
2023-02-08T08:06:32.488Z,67.62
2023-02-08T08:07:29.288Z,67.22
2023-02-08T08:08:26.109Z,66.60
2023-02-08T08:09:24.317Z,66.60
2023-02-08T08:10:21.108Z,66.63
2023-02-08T08:11:19.664Z,67.73
2023-02-08T08:12:16.472Z,68.70
2023-02-08T08:13:14.328Z,68.60
2023-02-08T08:14:11.085Z,69.35
2023-02-08T08:15:08.148Z,69.58
2023-02-08T08:16:05.299Z,70.35
2023-02-08T08:17:04.539Z,70.63
2023-02-08T08:18:01.357Z,70.18
2023-02-08T08:18:58.176Z,69.41
2023-02-08T08:19:54.977Z,68.45
2023-02-08T08:20:51.732Z,68.20
2023-02-08T08:21:48.653Z,68.05
2023-02-08T08:22:46.635Z,68.77
2023-02-08T08:23:44.130Z,68.93
2023-02-08T08:24:40.963Z,68.83
2023-02-08T08:25:38.344Z,69.14
2023-02-08T08:26:35.344Z,69.50
2023-02-08T08:27:32.336Z,70.49
2023-02-08T08:28:29.162Z,70.68
2023-02-08T08:29:25.974Z,70.55
2023-02-08T08:30:22.903Z,70.27
2023-02-08T08:31:21.968Z,69.90
2023-02-08T08:32:18.829Z,69.26
2023-02-08T08:33:15.562Z,68.18
2023-02-08T08:34:12.488Z,67.99
2023-02-08T08:35:10.539Z,68.52
2023-02-08T08:36:27.446Z,69.07
2023-02-08T08:37:24.220Z,70.34
2023-02-08T08:38:21.129Z,71.90
2023-02-08T08:39:18.031Z,70.78
2023-02-08T08:40:14.830Z,69.47
2023-02-08T08:41:18.226Z,68.90
2023-02-08T08:42:15.145Z,68.45
2023-02-08T08:43:11.982Z,68.61
2023-02-08T08:44:08.751Z,68.57
2023-02-08T08:45:07.092Z,67.83
2023-02-08T08:46:06.839Z,67.67
2023-02-08T08:47:03.769Z,67.69
2023-02-08T08:48:01.795Z,67.27
2023-02-08T08:48:58.702Z,66.50
2023-02-08T08:49:55.449Z,68.00
2023-02-08T08:50:54.838Z,68.88
2023-02-08T08:51:52.234Z,68.68
2023-02-08T08:52:49.033Z,68.77
2023-02-08T08:53:45.834Z,68.19
2023-02-08T08:54:42.729Z,68.30
2023-02-08T08:55:39.550Z,68.36
2023-02-08T08:56:36.489Z,68.18
2023-02-08T08:57:33.277Z,68.20
2023-02-08T08:58:30.120Z,67.11
2023-02-08T08:59:27.197Z,66.13
2023-02-08T09:00:24.152Z,66.04
2023-02-08T09:01:21.106Z,65.11
2023-02-08T09:02:18.121Z,64.89
2023-02-08T09:03:15.013Z,65.58
2023-02-08T09:04:14.521Z,65.91
2023-02-08T09:05:11.366Z,65.76
2023-02-08T09:06:08.157Z,65.31
2023-02-08T09:07:04.997Z,66.30
2023-02-08T09:08:03.578Z,65.68
2023-02-08T09:09:01.062Z,65.08
2023-02-08T09:09:57.873Z,64.70
2023-02-08T09:10:54.627Z,65.50
2023-02-08T09:11:51.499Z,65.73
2023-02-08T09:12:53.183Z,65.21
2023-02-08T09:13:52.987Z,65.40
2023-02-08T09:14:49.791Z,64.80
2023-02-08T09:15:48.225Z,63.90
2023-02-08T09:16:48.152Z,63.51
2023-02-08T09:17:44.958Z,63.07
2023-02-08T09:18:41.937Z,62.48
2023-02-08T09:19:39.165Z,62.43
2023-02-08T09:20:38.554Z,61.62
2023-02-08T09:21:36.568Z,60.70
2023-02-08T09:22:33.554Z,61.00
2023-02-08T09:23:30.368Z,61.73
2023-02-08T09:24:27.237Z,61.20
2023-02-08T09:25:24.065Z,61.13
2023-02-08T09:26:21.530Z,61.43
2023-02-08T09:27:19.145Z,61.26
2023-02-08T09:28:16.091Z,61.15
2023-02-08T09:29:12.878Z,60.37
2023-02-08T09:30:28.661Z,59.95
2023-02-08T09:31:31.180Z,59.86
2023-02-08T09:32:34.042Z,59.65
2023-02-08T09:33:30.860Z,59.74
2023-02-08T09:34:28.147Z,60.17
2023-02-08T09:35:24.951Z,59.69
2023-02-08T09:36:24.552Z,60.41
2023-02-08T09:37:24.108Z,59.16
2023-02-08T09:38:20.939Z,58.73
2023-02-08T09:39:21.768Z,58.47
2023-02-08T09:40:32.022Z,58.02
2023-02-08T09:41:50.249Z,58.85
2023-02-08T09:42:59.625Z,59.44
2023-02-08T09:44:15.062Z,58.88
2023-02-08T09:45:36.876Z,58.17
2023-02-08T09:46:41.052Z,58.41
2023-02-08T09:47:45.667Z,57.54
2023-02-08T09:48:43.016Z,58.04
2023-02-08T09:49:51.615Z,57.21
2023-02-08T09:50:51.140Z,57.92
2023-02-08T09:51:59.048Z,57.12
2023-02-08T09:53:21.303Z,57.28
2023-02-08T09:54:23.941Z,57.24
2023-02-08T09:55:52.694Z,56.25
2023-02-08T09:56:52.418Z,55.89
2023-02-08T09:57:53.707Z,56.05
2023-02-08T09:58:53.779Z,55.96
2023-02-08T10:00:02.175Z,54.81
2023-02-08T10:00:59.596Z,55.08
2023-02-08T10:02:23.540Z,54.25
2023-02-08T10:03:25.674Z,54.14
2023-02-08T10:04:34.144Z,54.21
2023-02-08T10:05:32.026Z,54.00
2023-02-08T10:06:31.041Z,54.04
2023-02-08T10:07:31.084Z,54.01
2023-02-08T10:08:35.196Z,53.35
2023-02-08T10:09:34.904Z,53.59
2023-02-08T10:10:56.702Z,54.32
2023-02-08T10:12:15.858Z,54.36
2023-02-08T10:13:40.884Z,52.75
2023-02-08T10:15:00.107Z,53.18
2023-02-08T10:16:16.829Z,51.83
2023-02-08T10:17:51.106Z,52.90
2023-02-08T10:19:02.944Z,52.26
2023-02-08T10:20:24.926Z,53.48
2023-02-08T10:21:55.699Z,52.32
2023-02-08T10:23:08.225Z,52.41
2023-02-08T10:24:25.943Z,51.58
2023-02-08T10:25:42.948Z,51.37
2023-02-08T10:27:03.144Z,51.94
2023-02-08T10:28:37.735Z,51.09
2023-02-08T10:29:52.643Z,50.19
2023-02-08T10:31:08.695Z,50.33
2023-02-08T10:32:27.093Z,49.97
2023-02-08T10:33:34.830Z,48.56
2023-02-08T10:34:49.716Z,48.38
2023-02-08T10:35:52.988Z,49.49
2023-02-08T10:36:51.567Z,49.89
2023-02-08T10:37:51.763Z,50.30
2023-02-08T10:38:54.203Z,50.58
2023-02-08T10:39:56.919Z,51.82
2023-02-08T10:41:00.201Z,51.72
2023-02-08T10:41:57.281Z,51.85
2023-02-08T10:43:24.348Z,52.05
2023-02-08T10:44:48.347Z,51.65
2023-02-08T10:46:26.960Z,51.24
2023-02-08T10:48:08.972Z,51.28
2023-02-08T10:49:54.869Z,51.85
2023-02-08T10:50:51.629Z,51.75
2023-02-08T10:51:57.293Z,52.59
2023-02-08T10:54:05.601Z,51.93
2023-02-08T10:56:37.376Z,53.23
2023-02-08T10:57:36.186Z,53.17
2023-02-08T10:58:34.623Z,52.70
2023-02-08T10:59:37.174Z,53.21
2023-02-08T11:00:39.502Z,52.36
2023-02-08T11:01:39.566Z,53.19
2023-02-08T11:02:42.652Z,52.97
2023-02-08T11:03:39.878Z,53.21
2023-02-08T11:05:01.877Z,53.44
2023-02-08T11:05:58.813Z,54.20
2023-02-08T11:06:56.780Z,54.85
2023-02-08T11:08:16.882Z,54.34
2023-02-08T11:09:26.157Z,54.38
2023-02-08T11:10:25.481Z,54.48
2023-02-08T11:11:27.953Z,55.04
2023-02-08T11:12:26.889Z,55.13
2023-02-08T11:13:29.617Z,54.65
2023-02-08T11:14:46.109Z,54.01
2023-02-08T11:16:01.700Z,53.74
2023-02-08T11:17:01.113Z,54.46
2023-02-08T11:18:07.189Z,53.53
2023-02-08T11:19:10.451Z,54.37
2023-02-08T11:20:21.915Z,54.65
2023-02-08T11:21:28.784Z,55.22
2023-02-08T11:22:31.499Z,55.23
2023-02-08T11:23:40.492Z,54.36
2023-02-08T11:24:45.012Z,54.91
2023-02-08T11:25:44.508Z,55.79
2023-02-08T11:26:51.312Z,54.98
2023-02-08T11:27:51.331Z,55.84
2023-02-08T11:29:12.454Z,55.71
2023-02-08T11:30:15.876Z,56.22
2023-02-08T11:31:23.863Z,56.00
2023-02-08T11:32:23.438Z,56.11
2023-02-08T11:33:23.461Z,56.38
2023-02-08T11:34:28.774Z,56.20
2023-02-08T11:35:37.609Z,55.83
2023-02-08T11:36:41.866Z,55.99
2023-02-08T11:37:38.934Z,55.69
2023-02-08T11:38:50.754Z,55.79
2023-02-08T11:39:57.069Z,55.79
2023-02-08T11:41:00.810Z,55.34
2023-02-08T11:42:04.450Z,54.55
2023-02-08T11:43:04.967Z,54.29
2023-02-08T11:44:09.778Z,54.56
2023-02-08T11:45:10.731Z,54.80
2023-02-08T11:46:13.070Z,55.17
2023-02-08T11:47:21.625Z,55.53
2023-02-08T11:48:24.735Z,55.61
2023-02-08T11:49:37.042Z,55.41
2023-02-08T11:50:38.258Z,55.22
2023-02-08T11:51:37.862Z,54.97
2023-02-08T11:52:36.680Z,55.57
2023-02-08T11:53:46.616Z,55.51
2023-02-08T11:54:43.487Z,54.46
2023-02-08T11:55:40.861Z,55.20
2023-02-08T11:56:37.953Z,54.38
2023-02-08T11:57:34.743Z,54.99
2023-02-08T11:58:32.126Z,54.50
2023-02-08T11:59:30.057Z,54.15
2023-02-08T12:00:30.498Z,54.07
2023-02-08T12:01:36.331Z,54.79
2023-02-08T12:02:39.544Z,53.68
2023-02-08T12:03:41.670Z,53.39
2023-02-08T12:04:38.542Z,53.96
2023-02-08T12:06:07.439Z,54.02
2023-02-08T12:07:09.904Z,54.50
2023-02-08T12:08:35.992Z,54.27
2023-02-08T12:10:05.461Z,53.97
2023-02-08T12:11:22.899Z,54.42
2023-02-08T12:12:40.821Z,53.74
2023-02-08T12:14:22.543Z,53.48
2023-02-08T12:15:57.749Z,53.76
2023-02-08T12:17:29.422Z,54.39
2023-02-08T12:18:47.825Z,54.50
2023-02-08T12:20:03.139Z,53.90
2023-02-08T12:21:25.470Z,54.17
2023-02-08T12:22:30.713Z,54.86
2023-02-08T12:23:27.465Z,54.68
2023-02-08T12:24:38.925Z,53.85
2023-02-08T12:25:46.753Z,54.40
2023-02-08T12:26:49.546Z,54.54
2023-02-08T12:28:02.472Z,54.24
2023-02-08T12:29:12.796Z,54.71
2023-02-08T12:30:12.456Z,54.41
2023-02-08T12:31:39.771Z,53.95
2023-02-08T12:32:56.732Z,54.32
2023-02-08T12:34:05.488Z,54.97
2023-02-08T12:35:02.276Z,54.99
2023-02-08T12:36:13.960Z,55.00
2023-02-08T12:37:47.819Z,54.64
2023-02-08T12:39:20.827Z,54.14
2023-02-08T12:40:52.910Z,54.35
2023-02-08T12:42:04.582Z,53.30
2023-02-08T12:43:04.235Z,52.92
2023-02-08T12:44:33.175Z,53.00
2023-02-08T12:45:35.910Z,52.73
2023-02-08T12:46:50.405Z,52.87
2023-02-08T12:48:31.314Z,52.54
2023-02-08T12:49:28.031Z,52.36
2023-02-08T12:50:45.892Z,51.74
2023-02-08T12:51:52.660Z,51.09
2023-02-08T12:52:58.004Z,50.34
2023-02-08T12:54:12.914Z,50.81
2023-02-08T12:55:28.363Z,49.96
2023-02-08T12:56:50.937Z,50.11
2023-02-08T12:58:41.748Z,48.73
2023-02-08T12:59:42.991Z,48.94
2023-02-08T13:00:43.217Z,48.38
2023-02-08T13:01:52.512Z,49.44
2023-02-08T13:03:07.008Z,49.12
2023-02-08T13:04:15.699Z,48.51
2023-02-08T13:05:21.887Z,49.06
2023-02-08T13:06:29.733Z,49.01
2023-02-08T13:07:33.684Z,48.48
2023-02-08T13:08:40.799Z,48.06
2023-02-08T13:09:50.330Z,48.42
2023-02-08T13:10:55.508Z,48.98
2023-02-08T13:11:58.266Z,49.24
2023-02-08T13:13:16.107Z,49.65
2023-02-08T13:14:40.145Z,49.99
2023-02-08T13:15:46.585Z,50.08
2023-02-08T13:16:52.320Z,49.38
2023-02-08T13:17:55.594Z,49.83
2023-02-08T13:19:16.293Z,50.25
2023-02-08T13:20:26.419Z,49.33